Time;durP1;ratioP1;P1;durP2;ratioP2;P2;SDS_P1;SDS_P2;PMS_P1;PMS_P2;Temp;Humidity;BMP_temperature;BMP_pressure;BME280_temperature;BME280_humidity;BME280_pressure;Samples;Min_cycle;Max_cycle;Signal;HPM_P1;HPM_P2
2022/03/06 00:00:46;;;;;;;16.67;10.10;;;;;;;4.65;44.91;100615.78;5110461;28;20056;-61
2022/03/06 00:03:13;;;;;;;17.33;9.50;;;;;;;4.64;44.75;100619.28;5112647;28;20049;-63
2022/03/06 00:05:40;;;;;;;18.05;10.18;;;;;;;4.63;44.85;100621.03;5112456;28;20081;-65
2022/03/06 00:08:07;;;;;;;15.88;10.80;;;;;;;4.61;45.14;100617.59;5111211;28;20047;-63
2022/03/06 00:10:34;;;;;;;13.70;9.73;;;;;;;4.60;45.04;100612.41;5112273;28;20056;-61
2022/03/06 00:13:01;;;;;;;13.52;9.65;;;;;;;4.57;45.24;100613.31;5112200;28;20047;-60
2022/03/06 00:15:27;;;;;;;15.93;10.52;;;;;;;4.57;45.29;100618.53;5112378;28;20124;-60
2022/03/06 00:17:55;;;;;;;16.88;10.38;;;;;;;4.56;45.12;100624.63;5111797;28;20055;-61
2022/03/06 00:20:22;;;;;;;14.82;10.38;;;;;;;4.54;45.03;100626.41;5111869;28;20078;-62
2022/03/06 00:22:49;;;;;;;16.48;10.48;;;;;;;4.51;45.13;100626.47;5112068;28;20054;-61
2022/03/06 00:25:16;;;;;;;15.80;10.30;;;;;;;4.49;44.90;100621.25;5111946;28;20100;-61
2022/03/06 00:27:42;;;;;;;13.68;9.00;;;;;;;4.47;44.89;100619.56;5110754;28;20552;-60
2022/03/06 00:30:09;;;;;;;12.32;8.82;;;;;;;4.44;44.94;100620.50;5111675;28;20060;-61
2022/03/06 00:32:36;;;;;;;14.30;9.30;;;;;;;4.42;45.58;100622.28;5111990;28;20407;-61
2022/03/06 00:35:03;;;;;;;14.75;10.15;;;;;;;4.42;45.30;100619.66;5111486;28;20120;-60
2022/03/06 00:37:30;;;;;;;15.77;10.23;;;;;;;4.40;45.47;100613.59;5111913;28;20103;-63
2022/03/06 00:39:57;;;;;;;13.57;9.75;;;;;;;4.39;45.13;100617.13;5111919;28;20055;-60
2022/03/06 00:42:24;;;;;;;14.32;10.15;;;;;;;4.36;45.03;100623.25;5112102;28;20059;-62
2022/03/06 00:44:52;;;;;;;15.23;9.93;;;;;;;4.33;45.13;100617.22;5111769;28;20047;-60
2022/03/06 00:47:18;;;;;;;14.65;9.88;;;;;;;4.30;45.00;100618.16;5110520;28;20340;-61
2022/03/06 00:49:45;;;;;;;15.65;10.27;;;;;;;4.27;45.13;100615.59;5111232;28;20424;-61
2022/03/06 00:52:11;;;;;;;16.23;10.20;;;;;;;4.26;45.55;100626.91;5111106;28;20051;-61
2022/03/06 00:54:38;;;;;;;15.07;10.32;;;;;;;4.23;45.41;100625.19;5111265;28;20496;-62
2022/03/06 00:57:05;;;;;;;17.95;11.10;;;;;;;4.21;45.58;100634.78;5111447;28;20507;-61
2022/03/06 00:59:34;;;;;;;13.60;9.68;;;;;;;4.19;45.62;100627.88;5111172;28;20116;-62
2022/03/06 01:02:03;;;;;;;15.00;10.30;;;;;;;4.16;45.63;100629.63;5111128;28;20122;-60
2022/03/06 01:04:30;;;;;;;16.05;10.15;;;;;;;4.16;45.56;100626.19;5110335;28;20055;-62
2022/03/06 01:06:57;;;;;;;16.23;10.32;;;;;;;4.15;45.65;100627.91;5111204;28;20047;-61
2022/03/06 01:09:23;;;;;;;14.25;10.00;;;;;;;4.13;45.74;100626.22;5111205;28;20056;-60
2022/03/06 01:11:51;;;;;;;15.95;10.93;;;;;;;4.12;45.38;100634.94;5111006;28;20044;-60
2022/03/06 01:14:18;;;;;;;16.35;10.40;;;;;;;4.10;45.88;100627.13;5110941;28;20048;-60
2022/03/06 01:16:44;;;;;;;15.07;10.43;;;;;;;4.08;45.59;100628.06;5110927;28;20577;-61
2022/03/06 01:19:11;;;;;;;15.45;10.50;;;;;;;4.06;45.64;100628.06;5109805;28;20474;-61
2022/03/06 01:21:38;;;;;;;17.33;10.65;;;;;;;4.05;45.89;100631.56;5111119;28;20461;-61
2022/03/06 01:24:04;;;;;;;13.57;10.32;;;;;;;4.04;45.87;100635.91;5111280;28;20044;-60
2022/03/06 01:26:31;;;;;;;14.00;9.95;;;;;;;4.03;45.78;100639.41;5110947;28;20481;-61
2022/03/06 01:28:58;;;;;;;15.38;10.10;;;;;;;4.01;45.75;100643.75;5110422;28;20067;-61
2022/03/06 01:31:24;;;;;;;17.10;11.02;;;;;;;4.00;45.72;100647.25;5111044;28;20104;-60
2022/03/06 01:33:51;;;;;;;13.98;9.65;;;;;;;3.98;45.84;100648.16;5111192;28;20105;-61
2022/03/06 01:36:17;;;;;;;14.43;9.90;;;;;;;3.97;45.93;100649.94;5110733;28;20062;-61
2022/03/06 01:38:44;;;;;;;16.48;11.00;;;;;;;3.97;46.13;100651.66;5110859;28;20048;-61
2022/03/06 01:41:10;;;;;;;17.77;11.13;;;;;;;3.96;46.21;100650.78;5110597;28;20412;-61
2022/03/06 01:43:37;;;;;;;15.80;10.80;;;;;;;3.95;45.85;100658.63;5110723;28;20047;-62
2022/03/06 01:46:04;;;;;;;13.45;10.13;;;;;;;3.93;45.89;100657.81;5110368;28;20560;-61
2022/03/06 01:48:30;;;;;;;17.23;10.93;;;;;;;3.91;45.50;100665.63;5110548;28;20056;-61
2022/03/06 01:50:57;;;;;;;15.98;10.57;;;;;;;3.88;45.73;100655.25;5110344;28;20396;-61
2022/03/06 01:53:23;;;;;;;16.38;10.85;;;;;;;3.84;45.75;100657.06;5110619;28;20051;-62
2022/03/06 01:55:50;;;;;;;17.02;10.77;;;;;;;3.83;45.77;100659.66;5110715;28;20083;-62
2022/03/06 01:58:16;;;;;;;16.10;10.65;;;;;;;3.81;45.83;100657.09;5110526;28;20048;-61
2022/03/06 02:00:48;;;;;;;13.63;9.88;;;;;;;3.78;45.91;100659.75;5110175;28;20557;-60
2022/03/06 02:03:15;;;;;;;15.60;10.70;;;;;;;3.79;45.81;100666.69;5110739;28;20051;-60
2022/03/06 02:05:43;;;;;;;16.33;10.85;;;;;;;3.77;46.38;100661.50;5110712;28;20100;-62
2022/03/06 02:08:10;;;;;;;17.27;11.00;;;;;;;3.78;46.18;100662.38;5110573;28;20105;-60
2022/03/06 02:10:36;;;;;;;16.63;10.93;;;;;;;3.78;46.51;100659.75;5110361;28;20047;-61
2022/03/06 02:13:04;;;;;;;14.48;10.38;;;;;;;3.80;46.70;100657.09;5109075;28;20051;-61
2022/03/06 02:15:31;;;;;;;15.10;10.60;;;;;;;3.80;46.32;100663.19;5110823;28;20047;-61
2022/03/06 02:17:59;;;;;;;16.90;11.05;;;;;;;3.81;46.44;100658.84;5110038;28;20047;-61
2022/03/06 02:20:27;;;;;;;18.65;11.18;;;;;;;3.82;46.48;100650.16;5110422;28;20097;-61
2022/03/06 02:22:55;;;;;;;17.40;11.02;;;;;;;3.83;46.29;100651.84;5112648;28;20454;-61
2022/03/06 02:25:23;;;;;;;15.25;10.60;;;;;;;3.84;46.41;100656.19;5114289;28;20048;-61
2022/03/06 02:27:52;;;;;;;17.40;11.15;;;;;;;3.83;46.12;100657.06;5114741;28;20048;-62
2022/03/06 02:30:25;;;;;;;17.95;12.05;;;;;;;3.80;46.71;100649.28;5114223;28;20089;-61
2022/03/06 02:32:53;;;;;;;16.48;11.18;;;;;;;3.80;46.45;100657.97;5114089;28;20097;-60
2022/03/06 02:35:20;;;;;;;17.23;10.63;;;;;;;3.80;46.29;100657.97;5114058;28;20499;-60
2022/03/06 02:37:47;;;;;;;15.68;10.38;;;;;;;3.81;46.29;100656.25;5112996;28;20047;-61
2022/03/06 02:40:16;;;;;;;14.70;10.88;;;;;;;3.80;46.80;100654.50;5114192;28;20106;-62
2022/03/06 02:42:45;;;;;;;14.55;10.25;;;;;;;3.80;46.82;100644.94;5114080;28;20047;-61
2022/03/06 02:45:17;;;;;;;17.40;10.65;;;;;;;3.81;47.20;100651.03;5114128;28;20090;-62
2022/03/06 02:47:45;;;;;;;16.80;10.60;;;;;;;3.83;46.55;100654.47;5112722;28;20440;-61
2022/03/06 02:50:16;;;;;;;14.95;10.63;;;;;;;3.83;46.80;100659.66;5112247;28;20514;-61
2022/03/06 02:52:43;;;;;;;13.65;10.48;;;;;;;3.84;46.23;100650.97;5113926;28;20103;-63
2022/03/06 02:55:11;;;;;;;16.92;10.57;;;;;;;3.83;46.55;100644.03;5112897;28;20048;-60
2022/03/06 02:57:39;;;;;;;17.40;10.18;;;;;;;3.82;46.05;100647.53;5113809;28;20199;-61
2022/03/06 03:00:10;;;;;;;13.57;9.95;;;;;;;3.79;46.95;100645.84;5113921;28;20040;-61
2022/03/06 03:02:38;;;;;;;17.48;10.63;;;;;;;3.80;46.36;100641.47;5113714;28;20055;-61
2022/03/06 03:05:06;;;;;;;14.13;10.45;;;;;;;3.77;46.61;100645.00;5114225;27;20047;-61
2022/03/06 03:07:32;;;;;;;13.70;9.80;;;;;;;3.75;46.05;100636.34;5113656;28;20052;-61
2022/03/06 03:09:59;;;;;;;14.95;10.00;;;;;;;3.71;46.49;100640.75;5112401;28;20051;-64
2022/03/06 03:12:26;;;;;;;14.70;10.30;;;;;;;3.71;46.32;100645.09;5113511;28;20079;-61
2022/03/06 03:14:52;;;;;;;17.15;10.63;;;;;;;3.69;46.32;100641.63;5113474;28;20044;-61
2022/03/06 03:17:19;;;;;;;15.00;10.77;;;;;;;3.64;46.38;100642.59;5113384;28;20109;-61
2022/03/06 03:19:45;;;;;;;15.95;10.30;;;;;;;3.62;46.37;100644.34;5113039;28;20052;-63
2022/03/06 03:22:11;;;;;;;14.32;10.45;;;;;;;3.60;46.47;100634.81;5113301;28;20043;-62
2022/03/06 03:24:38;;;;;;;14.90;10.23;;;;;;;3.58;46.64;100639.19;5113449;28;20109;-62
2022/03/06 03:27:05;;;;;;;16.30;10.20;;;;;;;3.55;46.93;100639.25;5113269;28;20492;-61
2022/03/06 03:29:31;;;;;;;16.90;10.27;;;;;;;3.51;46.61;100641.00;5111516;28;20069;-60
2022/03/06 03:31:58;;;;;;;13.65;10.18;;;;;;;3.46;46.58;100643.69;5112889;28;20040;-61
2022/03/06 03:34:25;;;;;;;13.52;10.00;;;;;;;3.45;46.48;100643.69;5112736;28;20040;-61
2022/03/06 03:36:51;;;;;;;14.55;10.20;;;;;;;3.43;47.07;100642.88;5112937;28;20112;-61
2022/03/06 03:39:18;;;;;;;14.85;10.55;;;;;;;3.42;46.70;100647.22;5112619;28;20067;-62
2022/03/06 03:41:44;;;;;;;15.65;10.35;;;;;;;3.39;46.82;100645.50;5111858;28;20051;-62
2022/03/06 03:44:11;;;;;;;16.70;10.55;;;;;;;3.41;46.79;100652.44;5111734;28;20053;-61
2022/03/06 03:46:37;;;;;;;14.48;9.70;;;;;;;3.40;46.82;100646.34;5112927;28;20052;-61
2022/03/06 03:49:04;;;;;;;15.82;10.70;;;;;;;3.39;47.12;100649.84;5112309;28;20492;-61
2022/03/06 03:51:31;;;;;;;13.77;9.90;;;;;;;3.39;47.01;100647.22;5112663;28;20465;-61
2022/03/06 03:53:57;;;;;;;15.32;10.20;;;;;;;3.38;47.06;100654.19;5111643;28;20120;-61
2022/03/06 03:56:24;;;;;;;17.20;10.75;;;;;;;3.36;46.67;100650.75;5112821;28;20036;-63
2022/03/06 03:58:51;;;;;;;13.30;9.25;;;;;;;3.36;46.98;100650.75;5112655;28;20100;-61
2022/03/06 04:01:17;;;;;;;15.63;10.50;;;;;;;3.35;46.77;100654.22;5112103;28;20496;-61
2022/03/06 04:03:45;;;;;;;15.05;9.85;;;;;;;3.35;47.07;100654.22;5112799;27;20061;-61
2022/03/06 04:06:11;;;;;;;15.00;9.77;;;;;;;3.36;47.24;100655.06;5112617;28;20075;-61
2022/03/06 04:08:38;;;;;;;15.93;10.15;;;;;;;3.35;47.18;100649.03;5112330;28;20051;-61
2022/03/06 04:11:05;;;;;;;15.23;10.38;;;;;;;3.36;47.38;100655.06;5112369;28;20075;-61
2022/03/06 04:13:32;;;;;;;13.32;8.77;;;;;;;3.34;47.38;100656.84;5111057;28;20055;-62
2022/03/06 04:15:58;;;;;;;14.23;9.52;;;;;;;3.34;47.43;100662.06;5112235;28;20051;-61
2022/03/06 04:18:25;;;;;;;14.10;10.00;;;;;;;3.32;47.34;100654.25;5112183;28;20044;-61
2022/03/06 04:20:51;;;;;;;12.98;9.25;;;;;;;3.31;47.64;100656.88;5112335;28;20052;-60
2022/03/06 04:23:18;;;;;;;13.18;9.48;;;;;;;3.31;46.92;100655.16;5112345;28;20128;-60
2022/03/06 04:25:44;;;;;;;14.30;9.82;;;;;;;3.30;47.44;100656.03;5112063;28;20043;-61
2022/03/06 04:28:11;;;;;;;13.18;9.48;;;;;;;3.28;47.15;100660.38;5112038;28;20100;-63
2022/03/06 04:30:37;;;;;;;14.68;9.85;;;;;;;3.26;47.43;100667.34;5111800;28;20044;-61
2022/03/06 04:33:04;;;;;;;13.93;9.27;;;;;;;3.25;47.46;100663.00;5111946;28;20101;-61
2022/03/06 04:35:31;;;;;;;15.10;10.20;;;;;;;3.23;47.45;100670.88;5111862;28;20488;-61
2022/03/06 04:37:57;;;;;;;14.48;9.68;;;;;;;3.21;47.61;100662.19;5111808;28;20055;-62
2022/03/06 04:40:24;;;;;;;14.98;9.82;;;;;;;3.20;47.47;100665.69;5111646;28;20051;-62
2022/03/06 04:42:51;;;;;;;15.32;9.93;;;;;;;3.19;47.92;100663.09;5110352;28;20051;-61
2022/03/06 04:45:17;;;;;;;15.05;9.25;;;;;;;3.18;47.63;100672.63;5111459;28;20044;-61
2022/03/06 04:47:44;;;;;;;14.73;9.40;;;;;;;3.18;47.57;100683.03;5111693;28;20112;-61
2022/03/06 04:50:10;;;;;;;13.38;8.95;;;;;;;3.18;48.01;100682.19;5111671;28;20407;-61
2022/03/06 04:52:37;;;;;;;15.02;9.15;;;;;;;3.17;47.45;100685.69;5111373;28;20047;-61
2022/03/06 04:55:04;;;;;;;14.15;9.25;;;;;;;3.15;47.82;100690.91;5111533;28;20078;-62
2022/03/06 04:57:31;;;;;;;13.73;8.50;;;;;;;3.14;48.01;100691.75;5110059;28;20183;-60
2022/03/06 04:59:57;;;;;;;14.70;9.73;;;;;;;3.12;47.79;100694.41;5111532;28;20044;-61
2022/03/06 05:02:24;;;;;;;14.80;9.15;;;;;;;3.10;47.38;100700.50;5111604;28;20048;-61
2022/03/06 05:04:50;;;;;;;13.50;9.07;;;;;;;3.07;48.03;100693.56;5111738;28;20142;-61
2022/03/06 05:07:17;;;;;;;12.65;8.93;;;;;;;3.05;47.68;100697.06;5110891;28;20067;-60
2022/03/06 05:09:43;;;;;;;14.32;8.63;;;;;;;3.04;47.77;100703.16;5109805;28;20075;-60
2022/03/06 05:12:10;;;;;;;13.48;9.00;;;;;;;3.03;47.69;100704.03;5111659;28;20051;-61
2022/03/06 05:14:37;;;;;;;12.93;8.57;;;;;;;3.00;47.68;100700.56;5110911;28;20047;-61
2022/03/06 05:17:04;;;;;;;14.68;8.88;;;;;;;3.00;48.08;100697.97;5110133;28;20051;-61
2022/03/06 05:19:30;;;;;;;13.38;9.15;;;;;;;2.99;48.05;100701.47;5109705;28;20059;-61
2022/03/06 05:21:57;;;;;;;13.75;9.10;;;;;;;2.97;48.51;100705.81;5111008;28;20488;-61
2022/03/06 05:24:23;;;;;;;14.55;8.77;;;;;;;2.97;48.05;100702.34;5110850;28;20043;-60
2022/03/06 05:26:50;;;;;;;12.40;8.80;;;;;;;2.96;48.57;100704.06;5110884;28;20089;-60
2022/03/06 05:29:17;;;;;;;13.15;8.68;;;;;;;2.96;48.89;100705.84;5110089;28;20568;-62
2022/03/06 05:31:44;;;;;;;13.15;8.82;;;;;;;2.96;48.41;100701.47;5110516;28;20082;-60
2022/03/06 05:34:10;;;;;;;11.18;8.23;;;;;;;2.97;48.77;100711.03;5110895;28;20055;-62
2022/03/06 05:36:37;;;;;;;12.43;8.20;;;;;;;2.97;48.71;100708.44;5110573;28;20443;-60
2022/03/06 05:39:03;;;;;;;12.93;8.32;;;;;;;2.98;48.70;100704.06;5110686;28;20089;-64
2022/03/06 05:41:30;;;;;;;11.65;7.97;;;;;;;3.00;48.44;100712.72;5110488;28;20152;-60
2022/03/06 05:43:56;;;;;;;14.95;8.75;;;;;;;2.99;48.87;100714.47;5110781;28;20051;-61
2022/03/06 05:46:23;;;;;;;11.77;8.20;;;;;;;3.01;49.12;100717.06;5110323;28;20051;-60
2022/03/06 05:48:50;;;;;;;12.50;8.70;;;;;;;3.03;48.54;100717.03;5110749;28;20047;-60
2022/03/06 05:51:16;;;;;;;12.77;7.93;;;;;;;3.04;48.80;100721.34;5110375;28;20052;-60
2022/03/06 05:53:42;;;;;;;13.52;7.85;;;;;;;3.05;48.29;100728.28;5110398;28;20090;-63
2022/03/06 05:56:09;;;;;;;11.43;7.80;;;;;;;3.06;48.37;100727.44;5109238;28;20043;-60
2022/03/06 05:58:35;;;;;;;11.40;8.18;;;;;;;3.04;48.89;100723.97;5114455;28;20090;-60
2022/03/06 06:01:02;;;;;;;11.80;8.07;;;;;;;3.02;48.88;100723.97;5114588;28;20060;-61
2022/03/06 06:03:29;;;;;;;11.70;8.20;;;;;;;3.00;48.75;100726.59;5114994;28;20111;-63
2022/03/06 06:05:55;;;;;;;13.70;8.65;;;;;;;2.99;48.45;100732.66;5114742;28;20483;-60
2022/03/06 06:08:22;;;;;;;12.45;8.27;;;;;;;2.98;48.83;100743.97;5114562;28;20047;-61
2022/03/06 06:10:48;;;;;;;17.65;8.40;;;;;;;2.97;49.31;100737.03;5114637;28;20054;-61
2022/03/06 06:13:15;;;;;;;16.30;8.63;;;;;;;2.97;48.88;100743.97;5114464;28;20082;-63
2022/03/06 06:15:45;;;;;;;12.48;8.45;;;;;;;2.97;49.19;100747.44;5114763;28;20078;-63
2022/03/06 06:18:11;;;;;;;12.25;7.93;;;;;;;2.96;49.04;100740.50;5113024;28;20044;-63
2022/03/06 06:20:40;;;;;;;13.57;8.07;;;;;;;2.99;48.99;100747.44;5114333;28;20079;-64
2022/03/06 06:23:06;;;;;;;12.15;8.15;;;;;;;2.99;49.35;100743.06;5114309;28;20094;-62
2022/03/06 06:25:33;;;;;;;11.75;7.63;;;;;;;2.99;49.13;100756.06;5114466;27;20081;-63
2022/03/06 06:27:59;;;;;;;11.55;8.10;;;;;;;2.99;49.12;100756.06;5114564;28;20453;-64
2022/03/06 06:30:26;;;;;;;12.93;7.47;;;;;;;3.00;48.97;100756.94;5114339;28;20087;-61
2022/03/06 06:32:52;;;;;;;11.98;7.88;;;;;;;2.99;49.02;100761.28;5113654;28;20044;-60
2022/03/06 06:35:20;;;;;;;12.57;8.23;;;;;;;3.00;49.33;100762.16;5114333;28;20052;-63
2022/03/06 06:37:46;;;;;;;11.38;7.97;;;;;;;2.99;48.97;100769.09;5112914;28;20104;-63
2022/03/06 06:40:13;;;;;;;13.18;8.35;;;;;;;2.99;49.10;100770.84;5114301;28;20051;-60
2022/03/06 06:42:39;;;;;;;15.82;9.25;;;;;;;2.97;49.21;100776.06;5114265;28;20131;-60
2022/03/06 06:45:06;;;;;;;14.80;8.75;;;;;;;2.96;49.07;100776.91;5114206;28;20460;-60
2022/03/06 06:47:33;;;;;;;14.20;8.43;;;;;;;2.95;49.38;100787.34;5113970;28;20048;-62
2022/03/06 06:49:59;;;;;;;15.15;9.35;;;;;;;2.92;49.45;100783.00;5113562;28;20097;-62
2022/03/06 06:52:26;;;;;;;14.82;8.77;;;;;;;2.92;49.79;100789.97;5112534;28;20545;-62
2022/03/06 06:54:52;;;;;;;15.85;8.60;;;;;;;2.91;49.24;100793.44;5113701;28;20043;-61
2022/03/06 06:57:19;;;;;;;21.27;9.75;;;;;;;2.91;49.89;100794.28;5112754;28;20085;-61
2022/03/06 06:59:45;;;;;;;14.73;8.82;;;;;;;2.92;49.92;100796.00;5112512;28;20450;-62
2022/03/06 07:02:12;;;;;;;15.55;9.10;;;;;;;2.92;49.71;100796.00;5113992;28;20122;-64
2022/03/06 07:04:39;;;;;;;13.75;9.10;;;;;;;2.93;49.78;100797.75;5112240;28;20431;-62
2022/03/06 07:07:05;;;;;;;13.68;9.05;;;;;;;2.93;50.20;100802.97;5113657;28;20059;-62
2022/03/06 07:09:32;;;;;;;16.20;9.63;;;;;;;2.94;50.15;100799.47;5112982;28;20480;-61
2022/03/06 07:11:58;;;;;;;15.18;8.98;;;;;;;2.96;50.25;100807.28;5113549;28;20051;-62
2022/03/06 07:14:25;;;;;;;11.93;8.10;;;;;;;2.98;49.99;100800.31;5113166;28;20048;-61
2022/03/06 07:16:51;;;;;;;13.63;8.73;;;;;;;3.00;50.14;100798.56;5112491;28;20124;-62
2022/03/06 07:19:18;;;;;;;13.55;8.45;;;;;;;3.03;49.98;100805.47;5113016;28;20144;-63
2022/03/06 07:21:44;;;;;;;15.30;8.98;;;;;;;3.07;49.88;100807.19;5113461;28;20056;-61
2022/03/06 07:24:11;;;;;;;15.80;8.23;;;;;;;3.09;50.51;100810.63;5113386;28;20055;-61
2022/03/06 07:26:38;;;;;;;16.42;8.52;;;;;;;3.12;50.14;100803.66;5113450;28;20100;-61
2022/03/06 07:29:04;;;;;;;13.10;9.13;;;;;;;3.16;50.46;100809.69;5112982;28;20353;-60
2022/03/06 07:31:31;;;;;;;12.48;8.55;;;;;;;3.19;50.10;100814.00;5112879;28;20054;-61
2022/03/06 07:33:58;;;;;;;14.18;8.73;;;;;;;3.21;50.02;100815.72;5111474;28;20083;-62
2022/03/06 07:36:24;;;;;;;15.05;9.18;;;;;;;3.23;50.60;100826.13;5113271;28;20081;-62
2022/03/06 07:38:51;;;;;;;14.80;8.82;;;;;;;3.24;50.23;100825.22;5112962;28;20047;-62
2022/03/06 07:41:18;;;;;;;15.25;9.27;;;;;;;3.24;49.97;100833.03;5112953;28;20051;-63
2022/03/06 07:43:45;;;;;;;16.60;9.60;;;;;;;3.24;50.31;100826.09;5112752;28;20047;-62
2022/03/06 07:46:11;;;;;;;14.73;9.25;;;;;;;3.23;50.20;100837.41;5111279;28;20461;-62
2022/03/06 07:48:38;;;;;;;12.35;8.60;;;;;;;3.23;50.61;100839.13;5112543;28;20062;-62
2022/03/06 07:51:05;;;;;;;12.27;8.60;;;;;;;3.24;50.85;100849.53;5112715;28;20095;-66
2022/03/06 07:53:31;;;;;;;16.77;9.38;;;;;;;3.26;50.66;100850.34;5112843;28;20484;-64
2022/03/06 07:55:58;;;;;;;13.65;9.00;;;;;;;3.28;50.90;100855.56;5113054;28;20131;-62
2022/03/06 07:58:24;;;;;;;15.07;9.10;;;;;;;3.31;51.19;100862.47;5112667;28;20047;-62
2022/03/06 08:00:51;;;;;;;13.98;9.02;;;;;;;3.34;51.46;100862.44;5111695;28;20430;-62
2022/03/06 08:03:18;;;;;;;13.93;8.57;;;;;;;3.38;51.51;100870.22;5112932;28;20054;-63
2022/03/06 08:05:45;;;;;;;13.18;8.45;;;;;;;3.44;51.60;100863.22;5112752;28;20055;-61
2022/03/06 08:08:11;;;;;;;12.27;8.25;;;;;;;3.50;51.40;100866.63;5112600;28;20114;-61
2022/03/06 08:10:38;;;;;;;12.55;8.60;;;;;;;3.56;51.87;100870.06;5112246;28;20052;-62
2022/03/06 08:13:05;;;;;;;13.23;8.18;;;;;;;3.62;51.86;100872.59;5112794;28;20083;-62
2022/03/06 08:15:31;;;;;;;11.95;7.85;;;;;;;3.68;51.54;100871.66;5112497;28;20107;-63
2022/03/06 08:17:58;;;;;;;12.85;7.68;;;;;;;3.74;51.82;100871.63;5112179;28;20051;-63
2022/03/06 08:20:24;;;;;;;10.93;7.35;;;;;;;3.80;51.91;100875.88;5111417;28;20047;-62
2022/03/06 08:22:51;;;;;;;9.68;6.82;;;;;;;3.85;51.87;100876.72;5112321;28;20116;-62
2022/03/06 08:25:20;;;;;;;10.57;6.63;;;;;;;3.90;51.70;100877.50;5112182;28;20079;-62
2022/03/06 08:27:47;;;;;;;10.73;7.63;;;;;;;3.97;51.95;100883.53;5112038;28;20058;-62
2022/03/06 08:30:15;;;;;;;10.63;6.60;;;;;;;4.02;51.73;100876.50;5111862;28;20468;-62
2022/03/06 08:32:41;;;;;;;10.07;6.18;;;;;;;4.10;51.71;100884.22;5111672;28;20055;-62
2022/03/06 08:35:08;;;;;;;10.23;6.28;;;;;;;4.17;51.92;100880.69;5112001;28;20051;-61
2022/03/06 08:37:36;;;;;;;10.32;6.43;;;;;;;4.25;52.05;100886.66;5110691;28;20513;-59
2022/03/06 08:40:03;;;;;;;11.55;6.63;;;;;;;4.32;52.08;100892.66;5110471;28;20460;-63
2022/03/06 08:42:30;;;;;;;11.35;6.50;;;;;;;4.40;51.69;100879.50;5110823;28;20116;-62
2022/03/06 08:44:57;;;;;;;9.32;6.22;;;;;;;4.45;51.79;100882.06;5112018;28;20048;-62
2022/03/06 08:47:23;;;;;;;10.10;5.88;;;;;;;4.49;51.65;100887.22;5111939;28;20051;-62
2022/03/06 08:49:50;;;;;;;12.85;6.03;;;;;;;4.52;51.72;100881.13;5111224;28;20040;-61
2022/03/06 08:52:17;;;;;;;9.32;5.82;;;;;;;4.55;51.57;100886.28;5111648;28;20500;-64
2022/03/06 08:54:43;;;;;;;9.23;5.80;;;;;;;4.57;51.57;100884.53;5111591;28;20091;-61
2022/03/06 08:57:10;;;;;;;8.13;5.57;;;;;;;4.61;51.39;100887.94;5111388;28;20187;-62
2022/03/06 08:59:36;;;;;;;8.13;5.53;;;;;;;4.63;51.55;100889.63;5111469;28;20083;-67
2022/03/06 09:02:03;;;;;;;9.85;5.65;;;;;;;4.67;51.30;100890.44;5110165;28;20105;-60
2022/03/06 09:04:33;;;;;;;8.00;5.28;;;;;;;4.68;51.49;100894.81;5111671;28;20488;-62
2022/03/06 09:07:00;;;;;;;10.32;5.53;;;;;;;4.71;51.33;100896.50;5111369;28;20062;-62
2022/03/06 09:09:27;;;;;;;11.48;5.55;;;;;;;4.74;51.55;100899.91;5110872;28;20067;-63
2022/03/06 09:11:54;;;;;;;7.43;5.20;;;;;;;4.78;51.39;100900.72;5111375;28;20081;-68
2022/03/06 09:14:20;;;;;;;10.07;5.65;;;;;;;4.80;51.43;100899.84;5109604;28;20495;-63
2022/03/06 09:16:47;;;;;;;8.10;5.32;;;;;;;4.85;51.47;100901.53;5110795;28;20035;-62
2022/03/06 09:19:13;;;;;;;9.65;5.57;;;;;;;4.89;51.58;100898.84;5111192;28;20769;-62
2022/03/06 09:21:43;;;;;;;7.72;5.20;;;;;;;4.94;51.43;100898.78;5111516;28;20092;-63
2022/03/06 09:24:11;;;;;;;8.95;4.88;;;;;;;4.99;51.42;100899.56;5110987;28;20112;-62
2022/03/06 09:26:38;;;;;;;9.10;5.43;;;;;;;5.05;51.53;100896.00;5110977;28;20512;-60
2022/03/06 09:29:05;;;;;;;7.60;4.80;;;;;;;5.10;51.38;100896.78;5110912;28;20138;-60
2022/03/06 09:31:32;;;;;;;7.10;4.97;;;;;;;5.16;51.46;100901.06;5110540;28;20051;-60
2022/03/06 09:33:59;;;;;;;10.68;5.45;;;;;;;5.23;51.36;100902.66;5109931;28;20504;-60
2022/03/06 09:36:42;;;;;;;7.63;5.20;;;;;;;5.30;51.28;100899.06;5110699;28;20059;-60
2022/03/06 09:39:09;;;;;;;11.43;5.40;;;;;;;5.38;51.41;100906.78;5110919;28;20048;-62
2022/03/06 09:41:40;;;;;;;6.40;4.72;;;;;;;5.46;51.41;100904.06;5111203;28;20384;-63
2022/03/06 09:44:08;;;;;;;6.90;4.38;;;;;;;5.53;51.09;100899.59;5110951;28;20047;-60
2022/03/06 09:46:36;;;;;;;7.15;4.50;;;;;;;5.59;50.95;100895.09;5111138;28;20079;-61
2022/03/06 09:49:04;;;;;;;6.90;4.45;;;;;;;5.66;50.97;100892.38;5110294;28;20056;-60
2022/03/06 09:51:35;;;;;;;6.72;4.35;;;;;;;5.71;51.05;100896.63;5110880;28;20100;-61
2022/03/06 09:54:01;;;;;;;8.00;4.50;;;;;;;5.81;50.89;100906.91;5110810;28;20449;-62
2022/03/06 09:56:28;;;;;;;5.38;4.30;;;;;;;5.89;51.09;100904.13;5110262;28;20479;-63
2022/03/06 09:58:54;;;;;;;5.63;4.32;;;;;;;5.97;50.87;100905.72;5110381;28;20052;-61
2022/03/06 10:01:21;;;;;;;5.50;4.18;;;;;;;6.04;51.02;100898.66;5110265;28;20100;-62
2022/03/06 10:03:48;;;;;;;6.45;4.22;;;;;;;6.13;51.12;100895.00;5110290;28;20047;-61
2022/03/06 10:06:14;;;;;;;7.95;4.35;;;;;;;6.21;50.69;100890.47;5110275;28;20048;-61
2022/03/06 10:08:41;;;;;;;8.10;4.28;;;;;;;6.31;50.47;100890.31;5110736;28;20047;-61
2022/03/06 10:11:10;;;;;;;6.25;4.18;;;;;;;6.38;50.54;100889.25;5110321;28;20576;-61
2022/03/06 10:13:44;;;;;;;5.70;4.07;;;;;;;6.47;50.28;100890.84;5110480;28;20086;-62
2022/03/06 10:16:19;;;;;;;7.57;4.25;;;;;;;6.54;50.54;100883.72;5110105;28;20243;-61
2022/03/06 10:18:55;;;;;;;7.97;4.13;;;;;;;6.62;50.34;100890.47;5109358;28;20496;-61
2022/03/06 10:21:27;;;;;;;7.07;3.90;;;;;;;6.71;50.44;100896.41;5108688;28;20055;-60
2022/03/06 10:24:02;;;;;;;6.05;4.50;;;;;;;6.80;50.15;100892.75;5110594;28;20048;-61
2022/03/06 10:26:30;;;;;;;9.13;4.53;;;;;;;6.88;49.95;100886.41;5110510;28;20108;-62
2022/03/06 10:28:58;;;;;;;7.00;4.00;;;;;;;6.94;49.58;100892.41;5110323;28;20769;-61
2022/03/06 10:31:27;;;;;;;5.85;4.00;;;;;;;6.99;49.43;100893.19;5110205;28;20408;-62
2022/03/06 10:34:12;;;;;;;8.65;4.22;;;;;;;7.03;49.68;100892.22;5109279;28;20079;-61
2022/03/06 10:36:47;;;;;;;5.85;3.85;;;;;;;7.12;49.89;100891.97;5110308;28;20059;-61
2022/03/06 10:39:21;;;;;;;6.70;4.32;;;;;;;7.23;50.31;100904.81;5108869;28;20047;-61
2022/03/06 10:41:53;;;;;;;6.07;3.67;;;;;;;7.33;49.81;100899.34;5110382;28;20075;-65
2022/03/06 10:44:22;;;;;;;6.93;3.85;;;;;;;7.45;49.35;100904.28;5113080;28;20496;-68
2022/03/06 10:46:59;;;;;;;7.05;4.00;;;;;;;7.54;49.52;100903.16;5114109;28;20052;-60
2022/03/06 10:49:26;;;;;;;6.40;4.53;;;;;;;7.66;49.23;100907.22;5113763;28;20054;-61
2022/03/06 10:51:53;;;;;;;9.93;4.05;;;;;;;7.75;49.45;100900.88;5113959;28;20050;-60
2022/03/06 10:54:21;;;;;;;6.45;3.78;;;;;;;7.86;49.58;100896.22;5113123;28;20497;-62
2022/03/06 10:56:50;;;;;;;7.55;3.92;;;;;;;7.98;49.09;100902.88;5114079;28;20039;-60
2022/03/06 10:59:24;;;;;;;7.70;4.07;;;;;;;8.12;49.09;100902.50;5112624;28;20423;-61
2022/03/06 11:01:51;;;;;;;6.80;3.78;;;;;;;8.24;48.85;100896.03;5114079;28;20120;-61
2022/03/06 11:04:20;;;;;;;6.43;3.83;;;;;;;8.35;48.81;100896.56;5113659;27;20108;-63
2022/03/06 11:06:50;;;;;;;5.80;3.38;;;;;;;8.47;48.51;100899.75;5115645;27;20075;-60
2022/03/06 11:09:18;;;;;;;5.88;3.80;;;;;;;8.56;48.03;100896.88;5116252;27;20052;-60
2022/03/06 11:11:46;;;;;;;7.07;3.92;;;;;;;8.65;47.63;100893.13;5111973;28;20381;-60
2022/03/06 11:14:14;;;;;;;5.28;4.00;;;;;;;8.72;48.07;100893.81;5113142;27;20052;-62
2022/03/06 11:16:41;;;;;;;6.10;4.00;;;;;;;8.81;48.08;100892.63;5091745;28;20048;-60
2022/03/06 11:19:09;;;;;;;6.57;3.92;;;;;;;8.92;47.90;100902.81;5100052;28;20043;-62
2022/03/06 11:21:39;;;;;;;4.55;3.25;;;;;;;9.02;47.94;100896.38;5112449;28;20052;-62
2022/03/06 11:24:12;;;;;;;8.65;4.07;;;;;;;9.16;47.03;100890.66;5113196;28;20051;-61